Terminal Aerodrome Forecast
Issued by NWS

Home | Current Version | Previous Version | Text Only | Print | Product List | Glossary On
Versions: 1 2 3 4 5 6 7 8 9 10 11 12 13 14 15 16 17 18
464
FTUS44 KSJT 292334
TAFJCT
TAF
KJCT 292334Z 3000/3024 32014G20KT P6SM VCSH SCT050 BKN100
     FM300800 33010KT P6SM SCT070
     FM301500 30011G17KT P6SM SKC=

USA.gov is the U.S. government's official web portal to all federal, state and local government web resources and services.